Boone, Colorado
Current Conditions -  °F | °C
As of 1:53 PM on Thursday 27 Nov 2014 (Local Time) from KPUB Reporting Station
Clear Clear  
Wind Chill: 71°   Ceiling: Unl
Heat Index: 71°   Visibility: 10mi
Dew Point: 14°   Wind: 12mph
Humidity: 11%   Direction: 310°NW
Pressure: 30.13"   Gusts: NA
Location:  38.25°N, 104.26°W
Report Text: KPUB 272053Z 31010KT 10SM CLR 22/M10 A3013 RMK AO2 WSHFT 2006 SLP189 T02171100 56035
Loading
Personal Weather Stations






























Interactive Weather Map New forecast layout! Learn more

10-Day Weather Forecast

Advertisements
Track Severe Weather on mobile